Terminal Aerodrome Forecast
Issued by NWS Hastings, NE

Home | Current Version | Previous Version | Text Only | Print | Product List | Glossary On
Versions: 1 2 3 4 5 6 7 8 9 10 11 12 13 14 15
000
FTUS43 KGID 272326
TAFGRI
TAF
KGRI 272326Z 2800/2824 06006KT P6SM SCT250
     FM280100 36006KT P6SM VCTS SCT080CB BKN250
     FM280500 03005KT P6SM SCT080 BKN250
     FM281800 06008KT P6SM SCT080 BKN250=

USA.gov is the U.S. government's official web portal to all federal, state and local government web resources and services.